createdAt,value
2018-09-28T00:02:35.628Z,39.6
2018-09-28T00:07:31.207Z,39.9
2018-09-28T00:12:27.325Z,39.9
2018-09-28T00:17:23.190Z,39.6
2018-09-28T00:22:19.329Z,40.2
2018-09-28T00:27:15.471Z,40.1
2018-09-28T00:32:11.747Z,40.3
2018-09-28T00:37:07.296Z,40.5
2018-09-28T00:42:03.372Z,40.5
2018-09-28T00:46:58.705Z,40.6
2018-09-28T00:51:54.717Z,40.6
2018-09-28T00:56:50.657Z,40.6
2018-09-28T01:01:46.857Z,40.5
2018-09-28T01:06:42.864Z,41.1
2018-09-28T01:11:38.783Z,40.9
2018-09-28T01:16:34.864Z,41.1
2018-09-28T01:21:31.104Z,41.4
2018-09-28T01:26:27.246Z,41.3
2018-09-28T01:31:23.573Z,41.3
2018-09-28T01:36:19.687Z,41.3
2018-09-28T01:41:15.609Z,41.4
2018-09-28T01:46:11.517Z,41.2
2018-09-28T01:51:07.300Z,41.1
2018-09-28T01:56:03.218Z,41.7
2018-09-28T02:00:59.230Z,42.2
2018-09-28T02:05:55.226Z,42.2
2018-09-28T02:10:51.496Z,42.3
2018-09-28T02:15:47.462Z,42.3
2018-09-28T02:20:43.333Z,42.5
2018-09-28T02:25:39.391Z,43.1
2018-09-28T02:30:35.483Z,43.3
2018-09-28T02:35:31.622Z,42.7
2018-09-28T02:40:27.642Z,42.9
2018-09-28T02:45:23.578Z,43.4
2018-09-28T02:50:19.434Z,43.3
2018-09-28T02:55:15.423Z,42.9
2018-09-28T03:00:11.775Z,43.1
2018-09-28T03:05:07.423Z,43.5
2018-09-28T03:10:03.695Z,43.7
2018-09-28T03:14:59.292Z,43.7
2018-09-28T03:19:55.054Z,43.7
2018-09-28T03:24:50.979Z,43.7
2018-09-28T03:29:47.092Z,43.8
2018-09-28T03:34:43.040Z,44.1
2018-09-28T03:39:38.896Z,44.4
2018-09-28T03:44:34.680Z,44.6
2018-09-28T03:49:30.676Z,44.7
2018-09-28T03:54:26.504Z,44.6
2018-09-28T03:59:22.631Z,45.2
2018-09-28T04:04:18.803Z,45
2018-09-28T04:09:14.808Z,44.9
2018-09-28T04:14:10.528Z,44.7
2018-09-28T04:19:06.165Z,44.7
2018-09-28T04:24:01.695Z,44.9
2018-09-28T04:28:57.772Z,45.1
2018-09-28T04:33:53.616Z,45.2
2018-09-28T04:38:49.558Z,45.6
2018-09-28T04:43:45.706Z,45.6
2018-09-28T04:48:41.630Z,45.8
2018-09-28T04:53:37.958Z,47.2
2018-09-28T04:58:33.958Z,46.9
2018-09-28T05:03:29.790Z,46.6
2018-09-28T05:08:25.852Z,46.1
2018-09-28T05:13:21.835Z,46.1
2018-09-28T05:18:17.309Z,45.8
2018-09-28T05:23:13.442Z,45.9
2018-09-28T05:28:09.214Z,45.7
2018-09-28T05:33:05.166Z,45.7
2018-09-28T05:38:00.849Z,45.6
2018-09-28T05:42:56.809Z,45.3
2018-09-28T05:47:52.703Z,45.2
2018-09-28T05:52:48.653Z,45.2
2018-09-28T05:57:44.998Z,45
2018-09-28T06:02:40.910Z,44.7
2018-09-28T06:07:36.814Z,44.2
2018-09-28T06:12:32.753Z,43.6
2018-09-28T06:17:28.693Z,43.3
2018-09-28T06:22:24.511Z,42.9
2018-09-28T06:27:20.512Z,42.8
2018-09-28T06:32:16.502Z,42.5
2018-09-28T06:37:12.548Z,42.5
2018-09-28T06:42:08.663Z,42.7
2018-09-28T06:47:04.732Z,42.3
2018-09-28T06:52:00.834Z,41.8
2018-09-28T06:56:56.983Z,41.5
2018-09-28T07:01:52.816Z,41.6
2018-09-28T07:06:48.932Z,41.4
2018-09-28T07:11:44.478Z,41.2
2018-09-28T07:16:40.999Z,40.8
2018-09-28T07:21:37.036Z,40.4
2018-09-28T07:26:33.322Z,40.1
2018-09-28T07:31:28.781Z,39.7
2018-09-28T07:36:25.583Z,39.4
2018-09-28T07:41:21.609Z,38.7
2018-09-28T07:46:18.187Z,38.2
2018-09-28T07:51:14.243Z,38.1
2018-09-28T07:56:10.988Z,38.1
2018-09-28T08:01:06.971Z,37.8
2018-09-28T08:06:03.042Z,37.5
2018-09-28T08:10:58.411Z,36.7
2018-09-28T08:15:54.497Z,36.4
2018-09-28T08:20:50.615Z,36.6
2018-09-28T08:25:46.693Z,35.8
2018-09-28T08:30:42.690Z,35.4
2018-09-28T08:35:38.655Z,34.2
2018-09-28T08:40:34.854Z,34.3
2018-09-28T08:45:31.677Z,34.5
2018-09-28T08:50:27.220Z,33.6
2018-09-28T08:55:23.593Z,33.4
2018-09-28T09:00:20.010Z,32.8
2018-09-28T09:05:16.351Z,32.8
2018-09-28T09:10:13.130Z,32
2018-09-28T09:15:09.694Z,31.5
2018-09-28T09:20:05.750Z,31.4
2018-09-28T09:25:01.664Z,30.5
2018-09-28T09:29:56.323Z,30.1
2018-09-28T09:34:52.602Z,29.5
2018-09-28T09:39:48.466Z,29.6
2018-09-28T09:44:44.673Z,28.5
2018-09-28T09:49:41.147Z,27.9
2018-09-28T09:54:37.696Z,27.1
2018-09-28T09:59:34.152Z,27.6
2018-09-28T10:04:30.330Z,26.2
2018-09-28T10:09:26.577Z,23.8
2018-09-28T10:14:23.377Z,23.4
2018-09-28T10:19:19.593Z,22.4
2018-09-28T10:24:16.259Z,21.6
2018-09-28T10:29:12.663Z,20.9
2018-09-28T10:34:08.988Z,20
2018-09-28T10:39:04.746Z,21.3
2018-09-28T10:44:00.876Z,21
2018-09-28T10:48:57.090Z,19.8
2018-09-28T10:53:53.844Z,20.1
2018-09-28T10:58:49.583Z,20.7
2018-09-28T11:03:46.393Z,21.1
2018-09-28T11:08:42.507Z,20.7
2018-09-28T11:13:38.334Z,20.6
2018-09-28T11:18:34.636Z,20.5
2018-09-28T11:23:31.143Z,20.6
2018-09-28T11:28:26.534Z,20.3
2018-09-28T11:33:22.871Z,19.5
2018-09-28T11:38:19.254Z,20
2018-09-28T11:43:16.014Z,19.5
2018-09-28T11:48:11.878Z,19.4
2018-09-28T11:53:08.488Z,18.6
2018-09-28T11:58:04.661Z,18.9
2018-09-28T12:03:01.207Z,19
2018-09-28T12:07:57.486Z,18
2018-09-28T12:12:53.700Z,18.7
2018-09-28T12:17:50.043Z,18
2018-09-28T12:22:46.071Z,17.7
2018-09-28T12:27:42.501Z,17.8
2018-09-28T12:32:38.595Z,16.9
2018-09-28T12:37:34.664Z,17.8
2018-09-28T12:42:30.535Z,16.8
2018-09-28T12:47:26.570Z,17.2
2018-09-28T12:52:22.704Z,16.4
2018-09-28T12:57:18.914Z,16.7
2018-09-28T13:02:15.948Z,16.8
2018-09-28T13:07:12.552Z,16.8
2018-09-28T13:12:08.062Z,16.4
2018-09-28T13:17:04.025Z,16.1
2018-09-28T13:22:00.005Z,16.3
2018-09-28T13:26:55.916Z,17.2
2018-09-28T13:31:52.220Z,16.8
2018-09-28T13:36:48.084Z,16.7
2018-09-28T13:41:44.032Z,16.9
2018-09-28T13:46:40.221Z,16.3
2018-09-28T13:51:37.251Z,16
2018-09-28T13:56:33.280Z,16.3
2018-09-28T14:01:30.120Z,15.9
2018-09-28T14:06:26.156Z,16.1
2018-09-28T14:11:22.422Z,16.8
2018-09-28T14:16:17.985Z,16.6
2018-09-28T14:21:13.780Z,17.2
2018-09-28T14:26:10.086Z,16.8
2018-09-28T14:31:06.092Z,15.9
2018-09-28T14:36:02.195Z,15.7
2018-09-28T14:40:58.841Z,15.2
2018-09-28T14:45:54.800Z,14.8
2018-09-28T14:50:51.247Z,15.5
2018-09-28T14:55:47.721Z,15
2018-09-28T15:00:44.607Z,15.2
2018-09-28T15:05:40.512Z,14.4
2018-09-28T15:10:36.339Z,14.3
2018-09-28T15:15:32.213Z,15.1
2018-09-28T15:20:27.731Z,15
2018-09-28T15:25:24.064Z,14.8
2018-09-28T15:30:20.429Z,15.4
2018-09-28T15:35:13.297Z,14.8
2018-09-28T15:40:09.332Z,15.6
2018-09-28T15:45:04.788Z,15.4
2018-09-28T15:50:00.859Z,15.3
2018-09-28T15:54:56.869Z,15.5
2018-09-28T15:59:53.614Z,16.1
2018-09-28T16:04:49.605Z,16.7
2018-09-28T16:09:45.562Z,16.8
2018-09-28T16:14:41.553Z,17.3
2018-09-28T16:19:37.738Z,17.5
2018-09-28T16:24:34.883Z,17.9
2018-09-28T16:29:30.731Z,18
2018-09-28T16:34:29.888Z,18.3
2018-09-28T16:39:28.586Z,18.5
2018-09-28T16:44:24.411Z,18.7
2018-09-28T16:49:23.718Z,19
2018-09-28T16:54:22.288Z,19.1
2018-09-28T16:59:20.865Z,19.2
2018-09-28T17:04:19.406Z,19
2018-09-28T17:09:16.476Z,19.5
2018-09-28T17:14:11.918Z,19.9
2018-09-28T17:19:08.419Z,20
2018-09-28T17:24:03.964Z,20.2
2018-09-28T17:29:00.162Z,20.7
2018-09-28T17:33:56.287Z,20.9
2018-09-28T17:38:51.914Z,21.2
2018-09-28T17:43:48.062Z,21.4
2018-09-28T17:48:44.640Z,21.5
2018-09-28T17:53:40.504Z,21.6
2018-09-28T17:58:36.897Z,21.7
2018-09-28T18:03:32.889Z,21.7
2018-09-28T18:08:28.555Z,21.7
2018-09-28T18:13:24.637Z,21.8
2018-09-28T18:18:21.158Z,22
2018-09-28T18:23:17.785Z,22
2018-09-28T18:28:16.455Z,22.2
2018-09-28T18:33:11.685Z,22.3
2018-09-28T18:38:10.184Z,22.3
2018-09-28T18:43:08.402Z,22.4
2018-09-28T18:48:05.480Z,22.6
2018-09-28T18:53:01.423Z,22.7
2018-09-28T18:57:58.173Z,22.8
2018-09-28T19:02:54.631Z,22.8
2018-09-28T19:07:51.597Z,23
2018-09-28T19:12:48.588Z,23
2018-09-28T19:17:44.749Z,23.2
2018-09-28T19:22:40.760Z,23.2
2018-09-28T19:27:37.097Z,23.4
2018-09-28T19:32:32.913Z,23.5
2018-09-28T19:37:28.998Z,23.6
2018-09-28T19:42:25.231Z,23.6
2018-09-28T19:47:21.174Z,23.6
2018-09-28T19:52:17.243Z,23.7
2018-09-28T19:57:13.734Z,23.9
2018-09-28T20:02:10.111Z,24
2018-09-28T20:07:05.544Z,23.9
2018-09-28T20:12:01.161Z,24.1
2018-09-28T20:16:57.404Z,24.2
2018-09-28T20:21:53.709Z,24.3
2018-09-28T20:26:49.771Z,24.5
2018-09-28T20:31:46.012Z,24.6
2018-09-28T20:36:41.740Z,24.7
2018-09-28T20:41:37.580Z,24.9
2018-09-28T20:46:33.795Z,25.1
2018-09-28T20:51:29.974Z,25.1
2018-09-28T20:56:26.366Z,25.1
2018-09-28T21:01:22.651Z,25.4
2018-09-28T21:06:18.694Z,25.4
2018-09-28T21:11:14.613Z,25.5
2018-09-28T21:16:10.762Z,25.6
2018-09-28T21:21:06.998Z,25.5
2018-09-28T21:26:03.367Z,25.4
2018-09-28T21:30:59.261Z,25.6
2018-09-28T21:35:55.445Z,25.7
2018-09-28T21:40:51.495Z,26
2018-09-28T21:45:47.656Z,26.2
2018-09-28T21:50:43.681Z,26.3
2018-09-28T21:55:40.005Z,26.5
2018-09-28T22:00:36.067Z,26.7
2018-09-28T22:05:32.682Z,26.8
2018-09-28T22:10:28.519Z,27
2018-09-28T22:15:24.643Z,26.9
2018-09-28T22:20:21.011Z,26.9
2018-09-28T22:25:17.378Z,27.1
2018-09-28T22:30:13.673Z,27.2
2018-09-28T22:35:09.862Z,27.3
2018-09-28T22:40:05.775Z,27.5
2018-09-28T22:45:01.763Z,27.6
2018-09-28T22:49:57.830Z,27.8
2018-09-28T22:54:54.489Z,27.8
2018-09-28T22:59:50.849Z,28
2018-09-28T23:04:47.089Z,28.3
2018-09-28T23:09:42.949Z,28.2
2018-09-28T23:14:39.257Z,28.2
2018-09-28T23:19:35.559Z,28.3
2018-09-28T23:24:32.164Z,28.4
2018-09-28T23:29:28.137Z,28.4
2018-09-28T23:34:24.290Z,28.5
2018-09-28T23:39:20.460Z,28.7
2018-09-28T23:44:16.857Z,28.5
2018-09-28T23:49:13.160Z,28.7
2018-09-28T23:54:09.378Z,28.9
2018-09-28T23:59:05.620Z,29.2
